Time;durP1;ratioP1;P1;durP2;ratioP2;P2;SDS_P1;SDS_P2;PMS_P1;PMS_P2;Temp;Humidity;BMP_temperature;BMP_pressure;BME280_temperature;BME280_humidity;BME280_pressure;Samples;Min_cycle;Max_cycle;Signal;HPM_P1;HPM_P2
2022/10/18 00:02:44;;;;;;;16.67;9.82;;;15.80;99.90;;;;;;5053538;28;20044;-65
2022/10/18 00:05:48;;;;;;;14.20;9.85;;;15.80;99.90;;;;;;5053085;28;20036;-65
2022/10/18 00:08:52;;;;;;;15.32;9.52;;;15.80;99.90;;;;;;5053201;28;20112;-64
2022/10/18 00:11:56;;;;;;;17.00;9.05;;;15.70;99.90;;;;;;5052966;28;20048;-64
2022/10/18 00:15:02;;;;;;;14.77;10.00;;;15.70;99.90;;;;;;5052887;28;20056;-66
2022/10/18 00:18:06;;;;;;;13.18;9.43;;;15.70;99.90;;;;;;5052703;28;20052;-64
2022/10/18 00:21:17;;;;;;;14.15;9.60;;;15.70;99.90;;;;;;5052881;28;20044;-65
2022/10/18 00:24:21;;;;;;;14.20;9.55;;;15.60;99.90;;;;;;5052455;28;20043;-65
2022/10/18 00:27:28;;;;;;;16.55;10.02;;;15.50;99.90;;;;;;5052814;28;20048;-65
2022/10/18 00:30:31;;;;;;;19.17;10.35;;;15.50;99.90;;;;;;5051727;28;20040;-64
2022/10/18 00:33:35;;;;;;;15.80;10.20;;;15.40;99.90;;;;;;5051547;28;20036;-65
2022/10/18 00:36:40;;;;;;;15.63;10.05;;;15.40;99.90;;;;;;5052566;28;20065;-64
2022/10/18 00:39:44;;;;;;;20.70;12.23;;;15.30;99.90;;;;;;5052354;28;20060;-64
2022/10/18 00:42:50;;;;;;;20.48;12.63;;;15.40;99.90;;;;;;5052961;28;20499;-65
2022/10/18 00:45:54;;;;;;;24.33;13.50;;;15.40;99.90;;;;;;5052595;28;20040;-64
2022/10/18 00:49:01;;;;;;;24.08;13.75;;;15.50;99.90;;;;;;5052359;28;20040;-64
2022/10/18 00:52:10;;;;;;;22.63;13.43;;;15.50;99.90;;;;;;5052427;28;20044;-64
2022/10/18 00:55:15;;;;;;;17.20;12.88;;;15.60;99.90;;;;;;5052097;28;20047;-64
2022/10/18 00:58:19;;;;;;;29.42;13.52;;;15.60;99.90;;;;;;5039928;28;20048;-64
2022/10/18 01:01:23;;;;;;;30.30;13.82;;;15.60;99.90;;;;;;5052167;28;20507;-64
2022/10/18 01:04:27;;;;;;;21.92;13.45;;;15.60;99.90;;;;;;5051921;28;20384;-64
2022/10/18 01:08:00;;;;;;;18.58;12.40;;;15.60;99.90;;;;;;5052084;28;20498;-64
2022/10/18 01:11:38;;;;;;;25.30;12.35;;;15.50;99.90;;;;;;5052132;28;20056;-64
2022/10/18 01:14:53;;;;;;;21.05;12.85;;;15.30;99.90;;;;;;5051611;28;20048;-64
2022/10/18 01:18:23;;;;;;;27.27;15.05;;;15.20;99.90;;;;;;5051982;28;20056;-64
2022/10/18 01:21:47;;;;;;;30.00;16.52;;;15.10;99.90;;;;;;5051672;28;20036;-64
2022/10/18 01:25:03;;;;;;;25.98;16.63;;;15.10;99.90;;;;;;5051375;28;20043;-64
2022/10/18 01:28:12;;;;;;;27.10;16.10;;;15.00;99.90;;;;;;5051740;28;20419;-64
2022/10/18 01:31:33;;;;;;;27.17;16.30;;;14.90;99.90;;;;;;5051675;28;20040;-64
2022/10/18 01:34:39;;;;;;;27.40;16.15;;;14.90;99.90;;;;;;5051562;28;20039;-64
2022/10/18 01:37:47;;;;;;;22.33;14.63;;;14.80;99.90;;;;;;5051550;28;20044;-64
2022/10/18 01:40:53;;;;;;;48.20;18.25;;;14.80;99.90;;;;;;5051572;28;20044;-64
2022/10/18 01:44:00;;;;;;;69.63;21.80;;;14.70;99.90;;;;;;5051192;28;20044;-64
2022/10/18 01:47:08;;;;;;;38.10;18.98;;;14.80;99.90;;;;;;5051353;28;20064;-65
2022/10/18 01:50:12;;;;;;;73.53;21.25;;;14.70;99.90;;;;;;5038923;28;20052;-64
2022/10/18 01:53:35;;;;;;;34.92;18.98;;;14.70;99.90;;;;;;5051275;28;20048;-64
2022/10/18 01:56:50;;;;;;;128.82;21.40;;;14.70;99.90;;;;;;5050719;28;20032;-64
2022/10/18 01:59:57;;;;;;;28.85;16.25;;;14.70;99.90;;;;;;5051173;28;20044;-64
2022/10/18 02:03:13;;;;;;;30.25;18.38;;;14.70;99.90;;;;;;5051491;28;20056;-64
2022/10/18 02:06:22;;;;;;;27.92;17.23;;;14.70;99.90;;;;;;5050604;28;20048;-64
2022/10/18 02:09:38;;;;;;;33.58;18.88;;;14.60;99.90;;;;;;5051190;28;20498;-64
2022/10/18 02:12:44;;;;;;;204.88;23.98;;;14.60;99.90;;;;;;5051411;28;20048;-63
2022/10/18 02:15:52;;;;;;;28.45;17.00;;;14.60;99.90;;;;;;5051020;28;20052;-64
2022/10/18 02:19:14;;;;;;;24.15;15.27;;;14.50;99.90;;;;;;5051527;28;20040;-64
2022/10/18 02:22:19;;;;;;;19.95;12.90;;;14.50;99.90;;;;;;5051147;28;20048;-64
2022/10/18 02:25:27;;;;;;;25.02;13.95;;;14.60;99.90;;;;;;5050926;28;20515;-63
2022/10/18 02:28:31;;;;;;;25.95;15.45;;;14.60;99.90;;;;;;5051246;28;20423;-63
2022/10/18 02:31:44;;;;;;;35.58;20.50;;;14.70;99.90;;;;;;5051326;28;20060;-64
2022/10/18 02:34:59;;;;;;;33.22;20.52;;;14.70;99.90;;;;;;5050769;28;20052;-64
2022/10/18 02:38:05;;;;;;;33.17;20.80;;;14.70;99.90;;;;;;5050912;28;20052;-64
2022/10/18 02:41:09;;;;;;;37.22;21.90;;;14.70;99.90;;;;;;5050985;28;20048;-63
2022/10/18 02:44:13;;;;;;;42.85;22.08;;;14.70;99.90;;;;;;5050616;28;20040;-63
2022/10/18 02:47:18;;;;;;;38.60;23.27;;;14.70;99.90;;;;;;5050948;28;20048;-64
2022/10/18 02:50:22;;;;;;;40.10;23.52;;;14.70;99.90;;;;;;5051346;28;20036;-63
2022/10/18 02:53:26;;;;;;;36.25;23.30;;;14.70;99.90;;;;;;5050598;28;20048;-63
2022/10/18 02:56:30;;;;;;;32.88;20.90;;;14.70;99.90;;;;;;5050965;28;20040;-64
2022/10/18 02:59:34;;;;;;;36.67;21.25;;;14.60;99.90;;;;;;5054172;28;20223;-63
2022/10/18 03:02:38;;;;;;;32.55;19.60;;;14.70;99.90;;;;;;5054926;28;20048;-63
2022/10/18 03:05:42;;;;;;;32.75;19.52;;;14.60;99.90;;;;;;5054533;28;20319;-64
2022/10/18 03:08:47;;;;;;;30.95;19.55;;;14.60;99.90;;;;;;5054374;28;20064;-63
2022/10/18 03:11:51;;;;;;;33.47;20.30;;;14.60;99.90;;;;;;5054408;28;20106;-64
2022/10/18 03:14:55;;;;;;;33.40;19.92;;;14.60;99.90;;;;;;5053826;28;20040;-64
2022/10/18 03:17:59;;;;;;;73.18;24.08;;;14.50;99.90;;;;;;5054594;28;20095;-63
2022/10/18 03:21:04;;;;;;;161.90;27.15;;;14.40;99.90;;;;;;5054265;28;20040;-63
2022/10/18 03:24:08;;;;;;;78.22;24.60;;;14.40;99.90;;;;;;5054094;28;20045;-63
2022/10/18 03:27:12;;;;;;;51.17;22.10;;;14.30;99.90;;;;;;5054020;28;20044;-63
2022/10/18 03:30:16;;;;;;;97.32;26.38;;;14.20;99.90;;;;;;5053810;28;20503;-64
2022/10/18 03:33:20;;;;;;;173.95;29.40;;;13.90;99.90;;;;;;5053544;28;20059;-63
2022/10/18 03:36:24;;;;;;;127.18;28.23;;;14.10;99.90;;;;;;5053713;28;20048;-63
2022/10/18 03:39:28;;;;;;;110.38;27.70;;;14.10;99.90;;;;;;5053332;28;20059;-63
2022/10/18 03:42:32;;;;;;;57.22;27.60;;;14.00;99.90;;;;;;5053652;28;20056;-63
2022/10/18 03:45:36;;;;;;;47.50;25.20;;;14.00;99.90;;;;;;5053639;28;20044;-64
2022/10/18 03:48:40;;;;;;;52.00;24.10;;;14.00;99.90;;;;;;5053486;28;20490;-63
2022/10/18 03:51:44;;;;;;;27.92;20.30;;;14.10;99.90;;;;;;5040529;28;20048;-63
2022/10/18 03:54:48;;;;;;;97.53;20.70;;;14.10;99.90;;;;;;5052985;28;20048;-64
2022/10/18 03:57:52;;;;;;;36.08;20.67;;;14.20;99.90;;;;;;5053143;28;20388;-63
2022/10/18 04:00:56;;;;;;;36.85;19.77;;;14.30;99.90;;;;;;5053506;28;20051;-64
2022/10/18 04:03:59;;;;;;;57.25;22.38;;;14.20;99.90;;;;;;5052909;28;20388;-63
2022/10/18 04:07:04;;;;;;;64.38;23.30;;;14.10;99.90;;;;;;5053164;28;20060;-63
2022/10/18 04:10:08;;;;;;;74.13;20.50;;;14.10;99.90;;;;;;5053085;28;20048;-63
2022/10/18 04:13:12;;;;;;;74.25;17.38;;;14.10;99.90;;;;;;5052992;28;20047;-63
2022/10/18 04:16:15;;;;;;;116.13;20.17;;;14.10;99.90;;;;;;5053113;28;20499;-63
2022/10/18 04:19:19;;;;;;;52.00;25.95;;;14.10;99.90;;;;;;5052747;28;20040;-63
2022/10/18 04:22:24;;;;;;;37.65;23.75;;;14.00;99.90;;;;;;5052902;28;20052;-63
2022/10/18 04:25:28;;;;;;;39.35;24.05;;;13.90;99.90;;;;;;5052690;28;20268;-63
2022/10/18 04:28:33;;;;;;;44.30;25.27;;;13.80;99.90;;;;;;5052609;28;20388;-63
2022/10/18 04:31:37;;;;;;;41.83;21.73;;;13.80;99.90;;;;;;5052627;28;20052;-63
2022/10/18 04:34:41;;;;;;;67.47;20.40;;;13.70;99.90;;;;;;5052392;28;20044;-63
2022/10/18 04:37:45;;;;;;;28.42;19.02;;;13.60;99.90;;;;;;5052602;28;20052;-63
2022/10/18 04:40:50;;;;;;;31.23;17.88;;;13.60;99.90;;;;;;5052357;28;20044;-63
2022/10/18 04:43:54;;;;;;;92.60;22.92;;;13.50;99.90;;;;;;5052408;28;20044;-63
2022/10/18 04:46:58;;;;;;;27.92;18.08;;;13.50;99.90;;;;;;5052018;28;20040;-63
2022/10/18 04:50:03;;;;;;;30.17;16.70;;;13.60;99.90;;;;;;5052452;28;20056;-63
2022/10/18 04:53:07;;;;;;;26.98;15.45;;;13.60;99.90;;;;;;5052012;28;20044;-63
2022/10/18 04:56:11;;;;;;;28.00;16.45;;;13.70;99.90;;;;;;5052217;28;20052;-63
2022/10/18 04:59:15;;;;;;;25.98;16.35;;;13.70;99.90;;;;;;5052036;28;20044;-64
2022/10/18 05:02:20;;;;;;;26.23;15.98;;;13.70;99.90;;;;;;5039905;28;20439;-63
2022/10/18 05:05:24;;;;;;;26.92;16.80;;;13.60;99.90;;;;;;5051827;28;20044;-63
2022/10/18 05:08:28;;;;;;;22.13;15.05;;;13.50;99.90;;;;;;5051977;28;20072;-63
2022/10/18 05:11:33;;;;;;;73.78;16.38;;;13.40;99.90;;;;;;5051767;28;20052;-62
2022/10/18 05:14:37;;;;;;;18.58;12.05;;;13.30;99.90;;;;;;5051723;28;20051;-63
2022/10/18 05:17:41;;;;;;;30.42;14.63;;;13.20;99.90;;;;;;5052314;28;20040;-63
2022/10/18 05:20:45;;;;;;;40.75;15.82;;;13.20;99.90;;;;;;5051367;28;20048;-63
2022/10/18 05:23:49;;;;;;;39.83;15.50;;;13.20;99.90;;;;;;5051800;28;20036;-63
2022/10/18 05:26:54;;;;;;;71.82;14.27;;;13.10;99.90;;;;;;5052021;28;20032;-62
2022/10/18 05:29:58;;;;;;;195.27;17.48;;;13.00;99.90;;;;;;5052019;28;20056;-62
2022/10/18 05:33:02;;;;;;;53.00;11.82;;;13.00;99.90;;;;;;5051756;28;20063;-62
2022/10/18 05:36:06;;;;;;;17.23;9.68;;;13.60;99.90;;;;;;5051747;28;20048;-62
2022/10/18 05:39:10;;;;;;;58.83;10.80;;;13.10;99.90;;;;;;5051531;28;20044;-63
2022/10/18 05:42:14;;;;;;;45.55;9.75;;;13.10;99.90;;;;;;5051931;28;20040;-62
2022/10/18 05:45:18;;;;;;;42.20;7.35;;;13.10;99.90;;;;;;5050980;28;20399;-63
2022/10/18 05:48:23;;;;;;;7.93;5.30;;;13.10;99.90;;;;;;5051617;28;20526;-62
2022/10/18 05:51:27;;;;;;;36.30;8.45;;;13.00;99.90;;;;;;5051872;28;20044;-63
2022/10/18 05:54:31;;;;;;;19.75;6.53;;;13.00;99.90;;;;;;5051123;28;20040;-63
2022/10/18 05:57:35;;;;;;;33.15;7.13;;;13.00;99.90;;;;;;5051772;28;20051;-62
2022/10/18 06:00:38;;;;;;;13.98;5.93;;;13.10;99.90;;;;;;5051788;28;20052;-62
2022/10/18 06:03:42;;;;;;;46.67;10.43;;;13.20;99.90;;;;;;5051057;28;20036;-62
2022/10/18 06:06:46;;;;;;;42.88;11.23;;;13.10;99.90;;;;;;5051754;28;20052;-62
2022/10/18 06:09:50;;;;;;;37.25;9.23;;;13.00;99.90;;;;;;5042548;28;20048;-62
2022/10/18 06:12:54;;;;;;;36.13;9.85;;;13.00;99.90;;;;;;5036696;28;20051;-62
2022/10/18 06:15:58;;;;;;;13.45;8.52;;;13.20;99.90;;;;;;5031657;28;20763;-62
2022/10/18 06:19:03;;;;;;;23.33;8.57;;;13.60;99.90;;;;;;5035504;28;20045;-62
2022/10/18 06:22:07;;;;;;;25.90;8.32;;;14.00;99.90;;;;;;5035100;28;20044;-62
2022/10/18 06:25:11;;;;;;;67.10;8.35;;;14.40;99.90;;;;;;5035806;28;20098;-63
2022/10/18 06:28:15;;;;;;;13.57;6.10;;;14.70;99.90;;;;;;5030358;28;20487;-62
2022/10/18 06:31:20;;;;;;;77.80;7.05;;;15.00;99.90;;;;;;5032621;28;20040;-62
2022/10/18 06:34:24;;;;;;;86.32;7.03;;;15.10;99.90;;;;;;5043860;28;20056;-63
2022/10/18 06:37:31;;;;;;;4.20;3.40;;;15.60;99.90;;;;;;5044412;28;20033;-63
2022/10/18 06:40:36;;;;;;;34.63;4.15;;;16.60;99.90;;;;;;5036137;28;20048;-63
2022/10/18 06:43:41;;;;;;;57.58;4.95;;;17.70;99.90;;;;;;5043405;28;20490;-63
2022/10/18 06:46:46;;;;;;;25.42;3.80;;;18.70;99.90;;;;;;5047294;28;20380;-63
2022/10/18 06:49:50;;;;;;;14.10;3.88;;;19.50;99.90;;;;;;5036572;28;20052;-63
2022/10/18 06:52:54;;;;;;;26.65;4.15;;;19.90;99.90;;;;;;5029626;28;20052;-63
2022/10/18 06:56:00;;;;;;;21.92;3.95;;;20.00;99.90;;;;;;5041517;28;20048;-64
2022/10/18 06:59:04;;;;;;;14.50;3.67;;;20.70;99.90;;;;;;5052466;28;20503;-63
2022/10/18 07:02:13;;;;;;;22.52;5.13;;;21.80;99.90;;;;;;5034833;28;20041;-63
2022/10/18 07:05:17;;;;;;;10.38;3.97;;;22.90;99.90;;;;;;5043349;28;20040;-64
2022/10/18 07:08:22;;;;;;;4.68;3.70;;;23.80;99.90;;;;;;5054722;28;20044;-64
2022/10/18 07:11:26;;;;;;;6.65;3.83;;;24.60;99.90;;;;;;5033809;28;20056;-64
2022/10/18 07:14:30;;;;;;;8.18;4.10;;;25.50;99.90;;;;;;5035943;28;20395;-64
2022/10/18 07:17:34;;;;;;;8.02;3.85;;;26.20;99.90;;;;;;5053400;28;20040;-64
2022/10/18 07:20:39;;;;;;;6.25;3.65;;;26.80;99.90;;;;;;5054404;28;20130;-64
2022/10/18 07:23:47;;;;;;;7.68;4.05;;;27.70;99.90;;;;;;5053200;28;20044;-65
2022/10/18 07:26:51;;;;;;;7.22;4.05;;;27.60;99.90;;;;;;5034223;28;20325;-64
2022/10/18 07:29:56;;;;;;;3.85;3.55;;;28.30;99.90;;;;;;5033449;28;20064;-64
2022/10/18 07:32:59;;;;;;;3.72;3.38;;;28.30;99.50;;;;;;5034138;28;20048;-64
2022/10/18 07:36:06;;;;;;;4.30;3.38;;;28.30;99.90;;;;;;5034780;28;20056;-64
2022/10/18 07:39:10;;;;;;;5.60;4.30;;;28.70;99.50;;;;;;5033742;28;20507;-64
2022/10/18 07:42:14;;;;;;;4.78;3.90;;;29.30;98.60;;;;;;5043815;28;20040;-64
2022/10/18 07:45:18;;;;;;;6.03;4.13;;;28.30;98.20;;;;;;5041491;28;20503;-64
2022/10/18 07:48:22;;;;;;;7.70;5.28;;;26.50;99.80;;;;;;5035362;28;20040;-64
2022/10/18 07:51:26;;;;;;;9.50;5.15;;;26.50;99.90;;;;;;5033477;28;20045;-65
2022/10/18 07:54:31;;;;;;;6.05;4.90;;;26.40;99.90;;;;;;5032850;28;20399;-64
2022/10/18 07:57:35;;;;;;;6.45;5.00;;;27.60;99.60;;;;;;5046822;28;20048;-65
2022/10/18 08:00:39;;;;;;;13.35;5.90;;;28.00;98.70;;;;;;5051310;28;20059;-64
2022/10/18 08:03:43;;;;;;;11.48;4.90;;;27.80;98.60;;;;;;5050000;28;20040;-65
2022/10/18 08:06:47;;;;;;;7.50;5.72;;;28.20;98.40;;;;;;5033886;28;20049;-64
2022/10/18 08:09:51;;;;;;;9.75;5.30;;;27.80;98.70;;;;;;5033114;28;20051;-64
2022/10/18 08:12:55;;;;;;;5.45;4.82;;;27.70;99.10;;;;;;5041812;28;20044;-65
2022/10/18 08:16:05;;;;;;;6.93;5.18;;;29.10;98.20;;;;;;5052081;28;20048;-65
2022/10/18 08:19:09;;;;;;;5.67;4.77;;;29.90;96.70;;;;;;5040779;28;20047;-65
2022/10/18 08:22:13;;;;;;;5.70;4.40;;;31.40;96.00;;;;;;5050265;28;20048;-65
2022/10/18 08:25:17;;;;;;;5.93;4.55;;;32.80;94.80;;;;;;5032496;28;20508;-65
2022/10/18 08:28:21;;;;;;;5.25;4.32;;;32.90;93.60;;;;;;5033807;28;20045;-65
2022/10/18 08:31:25;;;;;;;5.70;3.97;;;32.70;94.10;;;;;;5032745;28;20044;-65
2022/10/18 08:34:29;;;;;;;4.93;3.45;;;32.60;93.10;;;;;;5036302;28;20056;-65
2022/10/18 08:37:33;;;;;;;5.13;3.78;;;31.10;94.80;;;;;;5036959;28;20391;-65
2022/10/18 08:40:44;;;;;;;4.35;3.88;;;30.90;94.30;;;;;;5051492;28;20040;-65
2022/10/18 08:44:11;;;;;;;7.30;3.75;;;30.80;94.60;;;;;;5045431;28;20040;-64
2022/10/18 08:47:30;;;;;;;4.82;3.70;;;32.70;93.50;;;;;;5050189;28;20044;-64
2022/10/18 08:50:37;;;;;;;7.22;4.20;;;32.70;93.20;;;;;;5032262;28;20048;-65
2022/10/18 08:54:14;;;;;;;6.10;4.25;;;34.40;91.90;;;;;;5041911;28;20051;-65
2022/10/18 08:57:19;;;;;;;5.90;4.00;;;34.20;91.90;;;;;;5030568;28;20052;-65
2022/10/18 09:00:26;;;;;;;6.70;4.43;;;34.60;91.30;;;;;;5040141;28;20388;-65
2022/10/18 09:03:51;;;;;;;5.65;4.28;;;36.10;89.20;;;;;;5031451;28;20511;-65
2022/10/18 09:07:14;;;;;;;7.88;4.47;;;34.70;89.40;;;;;;5048227;28;20036;-65
2022/10/18 09:10:30;;;;;;;5.45;4.60;;;34.30;90.20;;;;;;5042773;28;20044;-65
2022/10/18 09:13:34;;;;;;;6.60;4.88;;;34.90;89.80;;;;;;5036222;28;20053;-65
2022/10/18 09:17:09;;;;;;;7.72;5.15;;;35.40;88.80;;;;;;5043123;28;20059;-65
2022/10/18 09:20:24;;;;;;;7.05;5.20;;;33.70;89.40;;;;;;5033937;28;20044;-65
2022/10/18 09:23:40;;;;;;;8.27;5.45;;;34.70;88.40;;;;;;5043830;28;20044;-65
2022/10/18 09:26:52;;;;;;;6.95;5.20;;;34.30;89.40;;;;;;5036325;28;20052;-65
2022/10/18 09:30:06;;;;;;;5.63;5.07;;;34.80;88.70;;;;;;5031771;28;20507;-65
2022/10/18 09:33:33;;;;;;;7.25;5.00;;;34.20;90.00;;;;;;5040098;28;20040;-65
2022/10/18 09:36:38;;;;;;;9.75;5.18;;;35.70;88.40;;;;;;5036853;28;20040;-65
2022/10/18 09:39:42;;;;;;;7.25;5.03;;;37.10;86.40;;;;;;5044615;28;20041;-66
2022/10/18 09:42:57;;;;;;;8.80;5.18;;;37.80;84.80;;;;;;5044079;28;20404;-66
2022/10/18 09:46:06;;;;;;;6.85;4.80;;;37.90;83.30;;;;;;5043568;28;20036;-65
2022/10/18 09:49:20;;;;;;;5.68;4.60;;;35.50;84.70;;;;;;5046545;28;20052;-66
2022/10/18 09:52:33;;;;;;;6.05;4.40;;;37.10;83.90;;;;;;5042436;28;20052;-65
2022/10/18 09:55:52;;;;;;;7.78;4.28;;;38.80;82.80;;;;;;5035518;28;20044;-65
2022/10/18 09:58:57;;;;;;;5.13;4.15;;;38.80;80.60;;;;;;5040221;28;20056;-65
2022/10/18 10:02:01;;;;;;;6.45;4.28;;;35.70;84.10;;;;;;5043093;28;20032;-66
2022/10/18 10:05:11;;;;;;;5.15;4.05;;;37.90;83.30;;;;;;5042336;28;20044;-66
2022/10/18 10:08:15;;;;;;;;;;;37.20;81.80;;;;;;5051837;28;20044;-64
2022/10/18 10:11:44;;;;;;;5.05;4.15;;;35.50;82.30;;;;;;5052934;28;19916;-65
2022/10/18 10:14:48;;;;;;;4.80;4.10;;;36.20;83.60;;;;;;5046100;28;20056;-65
2022/10/18 10:18:05;;;;;;;4.63;4.00;;;38.70;81.80;;;;;;5046370;28;20036;-65
2022/10/18 10:21:14;;;;;;;5.93;3.50;;;38.20;80.80;;;;;;5053042;28;20503;-65
2022/10/18 10:24:27;;;;;;;5.63;3.85;;;40.30;79.40;;;;;;5045489;28;20055;-66
2022/10/18 10:27:42;;;;;;;5.15;3.85;;;40.60;78.50;;;;;;5037390;28;20041;-65
2022/10/18 10:30:46;;;;;;;9.85;3.83;;;39.50;77.30;;;;;;5054268;28;20059;-66
2022/10/18 10:34:13;;;;;;;5.75;3.78;;;38.20;77.10;;;;;;5051036;28;20043;-66
2022/10/18 10:37:24;;;;;;;4.40;3.30;;;38.80;78.60;;;;;;5050714;28;20503;-66
2022/10/18 10:40:49;;;;;;;4.55;3.55;;;38.00;78.60;;;;;;5043942;28;20066;-66
2022/10/18 10:43:53;;;;;;;8.35;3.95;;;38.40;80.90;;;;;;5051936;28;20044;-67
2022/10/18 10:46:58;;;;;;;4.05;3.17;;;39.50;78.00;;;;;;5046439;28;20044;-65
2022/10/18 10:50:10;;;;;;;6.55;4.03;;;41.20;76.70;;;;;;5047533;28;20051;-65
2022/10/18 10:53:40;;;;;;;5.30;3.55;;;42.40;75.20;;;;;;5051089;28;20511;-63
2022/10/18 10:56:57;;;;;;;6.43;3.90;;;43.20;72.70;;;;;;5050430;28;20040;-63
2022/10/18 11:00:03;;;;;;;6.40;3.97;;;43.30;72.70;;;;;;5049262;28;20534;-64
2022/10/18 11:03:17;;;;;;;7.82;4.80;;;43.10;71.60;;;;;;5049915;28;20037;-65
2022/10/18 11:06:30;;;;;;;4.85;3.65;;;42.00;72.70;;;;;;5051095;28;20032;-65
2022/10/18 11:09:38;;;;;;;6.65;4.10;;;43.30;72.00;;;;;;5050256;28;20075;-65
2022/10/18 11:12:47;;;;;;;6.95;3.50;;;44.50;71.20;;;;;;5045486;28;20044;-64
2022/10/18 11:16:04;;;;;;;9.50;3.10;;;45.40;68.80;;;;;;5049159;28;20048;-64
2022/10/18 11:19:24;;;;;;;4.63;3.15;;;45.50;67.90;;;;;;5050205;28;20510;-65
2022/10/18 11:22:35;;;;;;;6.15;3.25;;;43.90;69.20;;;;;;5046510;28;20036;-65
2022/10/18 11:26:08;;;;;;;5.03;3.03;;;44.20;69.40;;;;;;5046365;28;20047;-65
2022/10/18 11:29:21;;;;;;;3.50;2.50;;;44.30;68.60;;;;;;5044190;28;20036;-64
2022/10/18 11:32:36;;;;;;;7.05;2.88;;;44.30;68.50;;;;;;5050968;28;20479;-65
2022/10/18 11:36:09;;;;;;;7.13;2.90;;;43.80;69.20;;;;;;5045745;28;20502;-65
2022/10/18 11:39:16;;;;;;;8.45;3.13;;;44.00;68.70;;;;;;5045524;28;20056;-65
2022/10/18 11:42:37;;;;;;;6.03;2.80;;;44.60;68.40;;;;;;5048402;28;20396;-65
2022/10/18 11:46:12;;;;;;;6.65;2.70;;;45.20;67.50;;;;;;5046857;28;20040;-64
2022/10/18 11:49:56;;;;;;;4.13;2.65;;;44.40;66.40;;;;;;5042043;28;20044;-64
2022/10/18 11:53:09;;;;;;;4.68;2.53;;;44.40;67.10;;;;;;5051393;28;20040;-64
2022/10/18 11:56:33;;;;;;;5.57;2.75;;;43.40;67.50;;;;;;5045021;28;20044;-65
2022/10/18 11:59:54;;;;;;;5.55;2.90;;;44.10;67.40;;;;;;5051293;28;20048;-65
2022/10/18 12:03:18;;;;;;;4.20;2.72;;;44.60;66.60;;;;;;5036787;28;20036;-64
2022/10/18 12:06:31;;;;;;;4.03;2.70;;;45.10;65.70;;;;;;5049154;28;20036;-64
2022/10/18 12:09:42;;;;;;;3.47;2.63;;;44.40;64.80;;;;;;5050762;28;20047;-64
2022/10/18 12:13:00;;;;;;;4.28;2.70;;;44.40;65.50;;;;;;5048700;28;20115;-65
2022/10/18 12:16:07;;;;;;;9.43;2.60;;;44.80;65.00;;;;;;5050375;28;20048;-65
2022/10/18 12:19:21;;;;;;;5.93;2.33;;;44.80;65.80;;;;;;5051511;28;20071;-65
2022/10/18 12:22:35;;;;;;;3.38;2.08;;;44.90;65.40;;;;;;5051143;28;20040;-65
2022/10/18 12:25:45;;;;;;;4.03;2.13;;;44.60;64.80;;;;;;5042041;28;20044;-65
2022/10/18 12:29:24;;;;;;;2.92;2.20;;;44.40;63.70;;;;;;5051419;28;20048;-65
2022/10/18 12:32:33;;;;;;;3.00;2.20;;;44.50;63.80;;;;;;5049918;28;20056;-65
2022/10/18 12:35:51;;;;;;;3.40;2.35;;;44.80;63.50;;;;;;5043092;28;20048;-65
2022/10/18 12:39:08;;;;;;;3.22;2.20;;;44.90;63.00;;;;;;5043575;28;20507;-64
2022/10/18 12:42:22;;;;;;;4.50;2.78;;;43.80;63.30;;;;;;5045608;28;20048;-64
2022/10/18 12:45:33;;;;;;;6.55;2.70;;;43.00;64.70;;;;;;5045755;28;20040;-64
2022/10/18 12:48:41;;;;;;;4.85;2.88;;;42.60;65.30;;;;;;5047639;28;20044;-65
2022/10/18 12:51:51;;;;;;;3.60;2.70;;;42.90;65.40;;;;;;5048101;28;20506;-65
2022/10/18 12:55:13;;;;;;;6.90;3.40;;;43.20;65.60;;;;;;5045120;28;20040;-65
2022/10/18 12:58:24;;;;;;;4.85;3.60;;;42.90;65.20;;;;;;5045110;28;20383;-65
2022/10/18 13:01:50;;;;;;;6.28;3.65;;;42.70;65.70;;;;;;5038791;28;20107;-65
2022/10/18 13:04:55;;;;;;;5.32;3.55;;;42.10;65.60;;;;;;5036977;28;20045;-65
2022/10/18 13:08:29;;;;;;;6.13;3.70;;;41.80;66.10;;;;;;5046305;28;20044;-64
2022/10/18 13:11:35;;;;;;;7.55;3.55;;;41.20;66.50;;;;;;5041601;28;20051;-64
2022/10/18 13:14:50;;;;;;;7.45;4.25;;;41.70;66.60;;;;;;5047378;28;20040;-64
2022/10/18 13:18:13;;;;;;;7.30;3.50;;;41.10;67.20;;;;;;5045864;28;20040;-64
2022/10/18 13:21:27;;;;;;;7.50;3.85;;;40.90;67.70;;;;;;5051546;28;20044;-64
2022/10/18 13:24:31;;;;;;;5.75;4.05;;;40.90;67.50;;;;;;5041969;28;20048;-64
2022/10/18 13:28:17;;;;;;;6.15;4.00;;;41.00;67.20;;;;;;5045067;28;20044;-64
2022/10/18 13:31:44;;;;;;;6.00;3.80;;;39.60;68.70;;;;;;5042216;28;21260;-63
2022/10/18 13:34:48;;;;;;;7.25;3.50;;;38.60;69.80;;;;;;5044860;28;20123;-64
2022/10/18 13:37:59;;;;;;;6.75;3.83;;;38.50;69.80;;;;;;5046222;28;20052;-65
2022/10/18 13:41:46;;;;;;;9.73;4.00;;;38.80;69.50;;;;;;5046023;28;20048;-65
2022/10/18 13:44:53;;;;;;;6.22;4.28;;;39.50;69.00;;;;;;5019084;28;20040;-64
2022/10/18 13:48:28;;;;;;;7.15;3.78;;;39.80;69.30;;;;;;5048247;28;20052;-64
2022/10/18 13:52:06;;;;;;;8.18;3.90;;;38.60;69.90;;;;;;5043652;28;20115;-66
2022/10/18 13:55:29;;;;;;;4.53;3.67;;;38.10;69.90;;;;;;5047294;28;20036;-64
2022/10/18 13:58:48;;;;;;;5.20;3.50;;;38.30;70.80;;;;;;5044621;28;20044;-65
2022/10/18 14:02:30;;;;;;;5.63;3.38;;;38.80;70.50;;;;;;5049766;28;20055;-65
2022/10/18 14:05:55;;;;;;;4.75;3.47;;;38.80;70.70;;;;;;5047506;28;20491;-66
2022/10/18 14:09:01;;;;;;;6.05;3.90;;;38.30;70.40;;;;;;5048773;28;20395;-65
2022/10/18 14:12:32;;;;;;;8.88;4.05;;;37.80;70.60;;;;;;5051767;28;20052;-66
2022/10/18 14:15:40;;;;;;;4.75;3.67;;;37.80;71.70;;;;;;5048161;28;20044;-66
2022/10/18 14:18:48;;;;;;;6.35;3.67;;;37.80;70.80;;;;;;5047164;28;20048;-66
2022/10/18 14:22:15;;;;;;;7.68;3.67;;;37.70;71.50;;;;;;5051638;28;20048;-66
2022/10/18 14:25:31;;;;;;;7.13;3.90;;;37.20;71.80;;;;;;5036893;28;20108;-66
2022/10/18 14:28:35;;;;;;;6.63;3.65;;;36.90;72.50;;;;;;5044476;28;20052;-65
2022/10/18 14:31:39;;;;;;;7.00;3.30;;;36.70;72.60;;;;;;5045159;28;20495;-65
2022/10/18 14:34:43;;;;;;;6.78;3.78;;;36.50;73.10;;;;;;5048954;28;20048;-65
2022/10/18 14:37:50;;;;;;;8.80;4.30;;;36.30;73.70;;;;;;5048785;28;20128;-65
2022/10/18 14:41:25;;;;;;;7.25;3.90;;;35.90;73.90;;;;;;5048221;28;20056;-65
2022/10/18 14:44:31;;;;;;;6.85;3.90;;;35.40;74.60;;;;;;5046284;28;20040;-65
2022/10/18 14:47:36;;;;;;;6.15;3.70;;;34.90;76.60;;;;;;5044453;28;20044;-65
2022/10/18 14:50:42;;;;;;;9.50;4.75;;;34.40;76.90;;;;;;5044828;28;20052;-65
2022/10/18 14:53:47;;;;;;;15.00;4.60;;;34.10;77.60;;;;;;5048097;28;20040;-65
2022/10/18 14:56:51;;;;;;;4.57;3.97;;;33.70;78.20;;;;;;5049587;28;20491;-66
2022/10/18 15:00:07;;;;;;;6.22;4.28;;;33.30;79.10;;;;;;5051197;28;20040;-65
2022/10/18 15:03:15;;;;;;;7.07;4.82;;;32.90;78.90;;;;;;5051477;28;20043;-65
2022/10/18 15:06:19;;;;;;;8.25;4.45;;;32.70;80.60;;;;;;5051228;28;20380;-65
2022/10/18 15:09:24;;;;;;;7.65;4.07;;;32.30;81.20;;;;;;5046061;28;20044;-65
2022/10/18 15:12:33;;;;;;;11.02;4.95;;;32.00;81.90;;;;;;5049214;28;20040;-65
2022/10/18 15:15:38;;;;;;;8.40;4.50;;;31.60;83.00;;;;;;5043099;28;20043;-65
2022/10/18 15:18:42;;;;;;;8.88;4.80;;;31.30;84.10;;;;;;5046187;28;20044;-65
2022/10/18 15:21:55;;;;;;;11.48;5.07;;;30.90;85.00;;;;;;5049181;28;20053;-65
2022/10/18 15:25:17;;;;;;;7.05;5.05;;;30.60;85.90;;;;;;5050387;28;20589;-65
2022/10/18 15:28:28;;;;;;;6.35;4.88;;;30.20;86.90;;;;;;5053388;28;20439;-65
2022/10/18 15:31:43;;;;;;;8.25;5.07;;;29.70;88.10;;;;;;5052051;28;20040;-65
2022/10/18 15:34:47;;;;;;;9.05;5.07;;;29.20;89.60;;;;;;5048151;28;20111;-64
2022/10/18 15:37:52;;;;;;;8.32;4.80;;;28.70;90.40;;;;;;5044006;28;20040;-65
2022/10/18 15:40:56;;;;;;;8.90;4.68;;;28.10;91.00;;;;;;5050650;28;20511;-65
2022/10/18 15:44:18;;;;;;;8.13;4.65;;;27.80;91.70;;;;;;5052214;28;20111;-65
2022/10/18 15:47:23;;;;;;;17.17;5.70;;;27.60;92.20;;;;;;5052960;28;20040;-65
2022/10/18 15:50:40;;;;;;;9.68;5.18;;;27.30;92.60;;;;;;5033449;28;20049;-65
2022/10/18 15:53:53;;;;;;;10.77;5.63;;;27.00;93.30;;;;;;5050491;28;20036;-65
2022/10/18 15:56:57;;;;;;;11.15;6.00;;;26.70;93.90;;;;;;5050239;28;20107;-65
2022/10/18 16:00:05;;;;;;;9.73;5.88;;;26.30;94.80;;;;;;5053240;28;20044;-65
2022/10/18 16:03:17;;;;;;;20.52;6.40;;;26.00;96.00;;;;;;5052185;28;20040;-64
2022/10/18 16:06:21;;;;;;;21.13;6.97;;;25.70;96.90;;;;;;5051679;28;20037;-64
2022/10/18 16:09:27;;;;;;;9.07;5.95;;;25.40;97.80;;;;;;5051073;28;20044;-64
2022/10/18 16:12:32;;;;;;;19.17;6.93;;;25.20;98.70;;;;;;5043957;28;20055;-64
2022/10/18 16:15:36;;;;;;;12.38;8.65;;;24.90;99.90;;;;;;5032365;28;20068;-64
2022/10/18 16:18:40;;;;;;;12.15;7.57;;;24.70;99.90;;;;;;5033302;28;20053;-65